createdAt,value
2019-04-23T00:00:03.423Z,16.96
2019-04-23T00:02:24.143Z,16.91
2019-04-23T00:04:54.177Z,17.01
2019-04-23T00:07:35.691Z,17.05
2019-04-23T00:10:03.428Z,17.14
2019-04-23T00:12:38.959Z,17.16
2019-04-23T00:17:37.134Z,17.23
2019-04-23T00:20:09.863Z,17.26
2019-04-23T00:22:44.891Z,17.21
2019-04-23T00:25:33.988Z,17.22
2019-04-23T00:27:50.272Z,17.28
2019-04-23T00:30:18.847Z,17.31
2019-04-23T00:32:48.084Z,17.28
2019-04-23T00:35:18.754Z,17.27
2019-04-23T00:37:55.151Z,17.30
2019-04-23T00:40:27.917Z,17.32
2019-04-23T00:43:02.079Z,17.33
2019-04-23T00:48:11.306Z,17.20
2019-04-23T00:53:04.530Z,17.03
2019-04-23T00:58:12.860Z,16.98
2019-04-23T01:03:12.550Z,16.90
2019-04-23T01:05:41.174Z,16.92
2019-04-23T01:08:18.585Z,16.90
2019-04-23T01:11:20.026Z,16.93
2019-04-23T01:13:47.503Z,16.90
2019-04-23T01:16:11.712Z,16.92
2019-04-23T01:18:51.466Z,16.95
2019-04-23T01:21:01.085Z,16.99
2019-04-23T01:23:42.614Z,16.96
2019-04-23T01:26:32.995Z,16.91
2019-04-23T01:29:06.986Z,16.79
2019-04-23T01:31:33.117Z,16.69
2019-04-23T01:34:13.469Z,16.68
2019-04-23T01:36:35.966Z,16.69
2019-04-23T01:39:23.118Z,16.63
2019-04-23T01:41:50.663Z,16.64
2019-04-23T01:44:21.828Z,16.66
2019-04-23T01:49:31.198Z,16.65
2019-04-23T01:54:25.576Z,16.51
2019-04-23T01:57:06.303Z,16.56
2019-04-23T01:59:31.877Z,16.62
2019-04-23T02:02:06.828Z,16.62
2019-04-23T02:04:34.623Z,16.55
2019-04-23T02:07:06.553Z,16.54
2019-04-23T02:09:43.441Z,16.48
2019-04-23T02:12:11.437Z,16.28
2019-04-23T02:14:43.584Z,16.20
2019-04-23T02:17:34.063Z,16.14
2019-04-23T02:19:46.726Z,16.00
2019-04-23T02:22:27.987Z,15.93
2019-04-23T02:24:59.694Z,15.89
2019-04-23T02:27:19.314Z,15.86
2019-04-23T02:32:29.706Z,15.89
2019-04-23T02:35:09.661Z,15.85
2019-04-23T02:37:45.930Z,15.87
2019-04-23T02:40:14.210Z,15.89
2019-04-23T02:42:51.875Z,15.90
2019-04-23T02:48:03.383Z,15.83
2019-04-23T02:50:34.909Z,15.79
2019-04-23T02:55:41.475Z,15.70
2019-04-23T02:57:44.124Z,15.66
2019-04-23T03:03:01.700Z,15.60
2019-04-23T03:05:24.515Z,15.60
2019-04-23T03:07:53.277Z,15.57
2019-04-23T03:10:32.467Z,15.49
2019-04-23T03:13:01.612Z,15.49
2019-04-23T03:18:21.012Z,15.44
2019-04-23T03:23:50.059Z,15.43
2019-04-23T03:29:06.535Z,15.41
2019-04-23T03:33:08.546Z,15.33
2019-04-23T03:34:02.877Z,15.19
2019-04-23T03:38:48.691Z,15.26
2019-04-23T03:48:51.153Z,15.31
2019-04-23T03:51:28.771Z,15.26
2019-04-23T03:54:23.475Z,15.27
2019-04-23T03:59:03.511Z,15.15
2019-04-23T04:01:58.132Z,15.16
2019-04-23T04:04:20.233Z,15.10
2019-04-23T04:06:43.713Z,15.09
2019-04-23T04:09:24.153Z,15.02
2019-04-23T04:11:29.184Z,14.94
2019-04-23T04:14:30.095Z,14.83
2019-04-23T04:19:24.693Z,14.75
2019-04-23T04:24:27.523Z,14.74
2019-04-23T04:26:59.461Z,14.72
2019-04-23T04:29:39.727Z,14.74
2019-04-23T04:39:40.342Z,14.62
2019-04-23T04:42:10.288Z,14.62
2019-04-23T04:44:41.136Z,14.57
2019-04-23T04:49:50.940Z,14.54
2019-04-23T04:54:30.835Z,14.49
2019-04-23T04:57:20.867Z,14.46
2019-04-23T05:00:06.745Z,14.47
2019-04-23T05:02:27.353Z,14.48
2019-04-23T05:04:55.952Z,14.50
2019-04-23T05:07:40.160Z,14.53
2019-04-23T05:10:07.374Z,14.47
2019-04-23T05:20:12.862Z,14.51
2019-04-23T05:22:52.625Z,14.41
2019-04-23T05:25:10.976Z,14.41
2019-04-23T05:27:56.804Z,14.47
2019-04-23T05:30:23.029Z,14.49
2019-04-23T05:32:52.033Z,14.48
2019-04-23T05:35:40.684Z,14.56
2019-04-23T05:40:37.248Z,14.56
2019-04-23T05:42:52.169Z,14.52
2019-04-23T05:45:30.235Z,14.57
2019-04-23T05:48:09.902Z,14.59
2019-04-23T05:50:40.866Z,14.65
2019-04-23T05:53:07.727Z,14.71
2019-04-23T05:55:34.351Z,14.64
2019-04-23T05:58:15.375Z,14.73
2019-04-23T06:00:51.522Z,14.86
2019-04-23T06:06:01.250Z,14.91
2019-04-23T06:08:25.560Z,14.99
2019-04-23T06:11:00.878Z,15.07
2019-04-23T06:13:26.040Z,15.14
2019-04-23T06:15:58.167Z,15.23
2019-04-23T06:18:30.489Z,15.28
2019-04-23T06:21:06.830Z,15.35
2019-04-23T06:23:38.160Z,15.37
2019-04-23T06:26:19.228Z,15.41
2019-04-23T06:28:46.687Z,15.47
2019-04-23T06:31:15.201Z,15.56
2019-04-23T06:33:47.983Z,15.66
2019-04-23T06:36:21.930Z,15.79
2019-04-23T06:41:23.910Z,15.92
2019-04-23T06:44:08.815Z,15.90
2019-04-23T06:46:28.687Z,16.00
2019-04-23T06:49:00.853Z,16.07
2019-04-23T06:51:34.892Z,16.13
2019-04-23T06:54:04.891Z,16.06
2019-04-23T06:56:43.320Z,16.09
2019-04-23T06:59:12.879Z,16.12
2019-04-23T07:01:51.056Z,16.22
2019-04-23T07:04:15.253Z,16.22
2019-04-23T07:06:58.202Z,16.22
2019-04-23T07:12:05.316Z,16.24
2019-04-23T07:14:26.129Z,16.36
2019-04-23T07:16:52.807Z,16.43
2019-04-23T07:22:03.300Z,16.54
2019-04-23T07:24:28.689Z,16.45
2019-04-23T07:26:55.910Z,16.49
2019-04-23T07:29:31.397Z,16.57
2019-04-23T07:32:05.692Z,16.57
2019-04-23T07:34:41.942Z,16.52
2019-04-23T07:37:22.953Z,16.61
2019-04-23T07:39:58.604Z,16.64
2019-04-23T07:42:38.364Z,16.68
2019-04-23T07:44:59.444Z,16.86
2019-04-23T07:50:09.856Z,17.01
2019-04-23T07:52:35.567Z,17.11
2019-04-23T07:57:34.057Z,17.26
2019-04-23T08:00:27.604Z,17.29
2019-04-23T08:02:33.585Z,17.33
2019-04-23T08:05:21.549Z,17.43
2019-04-23T08:07:45.320Z,17.57
2019-04-23T08:10:17.014Z,17.66
2019-04-23T08:12:48.096Z,17.82
2019-04-23T08:15:23.069Z,17.83
2019-04-23T08:17:56.229Z,17.76
2019-04-23T08:20:22.983Z,17.73
2019-04-23T08:23:06.766Z,17.52
2019-04-23T08:25:35.497Z,17.70
2019-04-23T08:28:11.867Z,17.85
2019-04-23T08:30:42.417Z,18.09
2019-04-23T08:35:42.956Z,18.08
2019-04-23T08:38:21.169Z,18.07
2019-04-23T08:40:57.217Z,18.29
2019-04-23T08:43:31.488Z,18.45
2019-04-23T08:45:53.399Z,18.32
2019-04-23T08:48:27.815Z,18.32
2019-04-23T08:50:57.952Z,18.38
2019-04-23T08:53:37.637Z,18.38
2019-04-23T09:03:40.851Z,18.37
2019-04-23T09:06:10.754Z,18.49
2019-04-23T09:08:44.382Z,18.64
2019-04-23T09:11:33.596Z,18.70
2019-04-23T09:18:52.782Z,18.77
2019-04-23T09:21:22.560Z,18.75
2019-04-23T09:23:54.017Z,18.74
2019-04-23T09:26:26.104Z,18.93
2019-04-23T09:34:20.707Z,18.72
2019-04-23T09:39:52.234Z,18.85
2019-04-23T09:42:24.092Z,18.90
2019-04-23T09:45:03.690Z,18.97
2019-04-23T09:47:46.090Z,19.01
2019-04-23T09:50:15.684Z,19.07
2019-04-23T09:52:57.289Z,19.17
2019-04-23T09:57:55.595Z,19.17
2019-04-23T10:00:34.666Z,19.01
2019-04-23T10:02:45.701Z,18.93
2019-04-23T10:05:14.127Z,18.87
2019-04-23T10:07:44.143Z,19.13
2019-04-23T10:10:05.375Z,19.27
2019-04-23T10:12:35.911Z,19.25
2019-04-23T10:15:13.783Z,19.26
2019-04-23T10:17:40.296Z,19.36
2019-04-23T10:20:11.052Z,19.53
2019-04-23T10:22:42.226Z,19.57
2019-04-23T10:25:12.982Z,19.53
2019-04-23T10:27:43.367Z,19.35
2019-04-23T10:30:14.493Z,19.36
2019-04-23T10:32:45.296Z,19.42
2019-04-23T10:35:28.893Z,19.44
2019-04-23T10:37:56.555Z,19.32
2019-04-23T10:40:25.972Z,19.42
2019-04-23T10:42:54.375Z,19.14
2019-04-23T10:45:44.715Z,19.23
2019-04-23T10:51:09.067Z,19.43
2019-04-23T10:53:39.935Z,19.58
2019-04-23T10:56:11.329Z,19.74
2019-04-23T10:58:38.360Z,19.93
2019-04-23T11:01:16.413Z,20.00
2019-04-23T11:03:58.886Z,20.07
2019-04-23T11:06:23.515Z,20.16
2019-04-23T11:09:06.198Z,20.14
2019-04-23T11:11:40.743Z,20.19
2019-04-23T11:14:12.277Z,20.38
2019-04-23T11:16:49.258Z,20.55
2019-04-23T11:21:42.839Z,20.52
2019-04-23T11:24:27.511Z,20.55
2019-04-23T11:29:22.549Z,20.52
2019-04-23T11:31:58.329Z,20.50
2019-04-23T11:34:47.824Z,20.48
2019-04-23T11:39:31.846Z,20.75
2019-04-23T11:42:06.660Z,20.77
2019-04-23T11:44:36.504Z,20.75
2019-04-23T11:47:07.768Z,20.88
2019-04-23T11:52:29.093Z,20.83
2019-04-23T11:54:39.021Z,20.83
2019-04-23T11:57:29.842Z,20.95
2019-04-23T11:59:47.322Z,20.90
2019-04-23T12:02:31.122Z,20.93
2019-04-23T12:05:20.802Z,21.07
2019-04-23T12:07:41.363Z,21.13
2019-04-23T12:10:31.677Z,21.26
2019-04-23T12:12:49.533Z,21.55
2019-04-23T12:15:32.671Z,21.86
2019-04-23T12:18:04.872Z,22.10
2019-04-23T12:20:33.641Z,22.37
2019-04-23T12:23:28.181Z,22.60
2019-04-23T12:25:34.095Z,22.66
2019-04-23T12:27:59.568Z,22.39
2019-04-23T12:30:42.077Z,22.16
2019-04-23T12:33:11.594Z,22.24
2019-04-23T12:35:39.048Z,22.37
2019-04-23T12:38:16.886Z,22.45
2019-04-23T12:40:46.030Z,22.38
2019-04-23T12:45:47.001Z,22.13
2019-04-23T12:48:33.825Z,22.05
2019-04-23T12:51:09.421Z,21.92
2019-04-23T12:56:16.984Z,21.79
2019-04-23T12:58:27.635Z,21.85
2019-04-23T13:00:58.225Z,21.63
2019-04-23T13:03:37.235Z,21.80
2019-04-23T13:05:59.181Z,21.83
2019-04-23T13:08:46.618Z,22.01
2019-04-23T13:11:15.233Z,22.27
2019-04-23T13:13:48.858Z,22.49
2019-04-23T13:16:18.129Z,22.66
2019-04-23T13:19:14.446Z,22.87
2019-04-23T13:21:38.432Z,22.85
2019-04-23T13:23:49.433Z,23.04
2019-04-23T13:26:17.821Z,22.97
2019-04-23T13:28:52.513Z,22.89
2019-04-23T13:31:30.067Z,22.79
2019-04-23T13:33:58.049Z,22.93
2019-04-23T13:39:10.045Z,22.99
2019-04-23T13:41:32.402Z,22.90
2019-04-23T13:44:04.549Z,22.88
2019-04-23T13:46:34.465Z,22.73
2019-04-23T13:49:18.434Z,22.66
2019-04-23T13:52:12.802Z,22.49
2019-04-23T13:54:44.072Z,22.48
2019-04-23T13:57:23.921Z,22.61
2019-04-23T13:59:29.034Z,22.92
2019-04-23T14:01:46.937Z,23.28
2019-04-23T14:07:23.384Z,23.64
2019-04-23T14:10:00.574Z,23.66
2019-04-23T14:12:24.183Z,23.75
2019-04-23T14:15:04.276Z,23.62
2019-04-23T14:17:38.108Z,23.62
2019-04-23T14:20:03.813Z,23.73
2019-04-23T14:27:52.126Z,23.36
2019-04-23T14:30:23.971Z,23.17
2019-04-23T14:32:45.449Z,23.08
2019-04-23T14:38:09.427Z,22.86
2019-04-23T14:40:26.622Z,22.75
2019-04-23T14:43:07.394Z,22.79
2019-04-23T14:45:42.586Z,22.67
2019-04-23T14:53:16.624Z,22.49
2019-04-23T15:00:54.061Z,22.39
2019-04-23T15:03:28.744Z,22.38
2019-04-23T15:06:05.035Z,22.32
2019-04-23T15:08:28.731Z,22.24
2019-04-23T15:11:06.813Z,22.32
2019-04-23T15:13:28.265Z,22.33
2019-04-23T15:16:07.965Z,22.43
2019-04-23T15:18:44.758Z,22.51
2019-04-23T15:21:37.648Z,22.52
2019-04-23T15:28:31.510Z,22.49
2019-04-23T15:31:33.210Z,22.43
2019-04-23T15:39:13.870Z,22.72
2019-04-23T15:41:39.640Z,22.78
2019-04-23T15:44:08.620Z,22.82
2019-04-23T15:49:19.834Z,23.27
2019-04-23T15:51:47.441Z,23.46
2019-04-23T15:54:19.661Z,23.64
2019-04-23T15:59:24.354Z,24.24
2019-04-23T16:01:39.544Z,24.42
2019-04-23T16:03:51.744Z,24.42
2019-04-23T16:06:25.404Z,24.60
2019-04-23T16:09:33.816Z,24.50
2019-04-23T16:11:47.376Z,24.76
2019-04-23T16:17:04.523Z,25.27
2019-04-23T16:19:53.440Z,25.55
2019-04-23T16:22:20.225Z,25.73
2019-04-23T16:24:55.525Z,25.85
2019-04-23T16:27:14.961Z,26.01
2019-04-23T16:30:09.720Z,26.12
2019-04-23T16:32:57.866Z,25.88
2019-04-23T16:38:10.163Z,25.62
2019-04-23T16:40:33.101Z,25.37
2019-04-23T16:43:07.077Z,25.07
2019-04-23T16:48:19.953Z,24.43
2019-04-23T16:50:41.716Z,24.19
2019-04-23T16:55:53.375Z,24.09
2019-04-23T16:58:21.872Z,23.95
2019-04-23T17:00:51.630Z,23.81
2019-04-23T17:13:30.887Z,23.35
2019-04-23T17:16:06.715Z,23.15
2019-04-23T17:18:31.289Z,22.99
2019-04-23T17:21:10.229Z,22.79
2019-04-23T17:26:17.178Z,22.57
2019-04-23T17:28:35.893Z,22.46
2019-04-23T17:38:56.866Z,22.07
2019-04-23T17:41:41.722Z,21.94
2019-04-23T17:44:18.052Z,21.84
2019-04-23T17:46:47.039Z,21.80
2019-04-23T17:51:48.836Z,21.58
2019-04-23T17:54:19.414Z,21.43
2019-04-23T17:59:28.324Z,21.13
2019-04-23T18:02:21.154Z,21.02
2019-04-23T18:04:36.613Z,20.86
2019-04-23T18:07:23.185Z,20.69
2019-04-23T18:09:57.058Z,20.48
2019-04-23T18:12:14.729Z,20.36
2019-04-23T18:14:27.068Z,20.20
2019-04-23T18:17:13.063Z,20.06
2019-04-23T18:19:53.570Z,19.88
2019-04-23T18:22:22.118Z,19.74
2019-04-23T18:25:09.582Z,19.65
2019-04-23T18:27:48.342Z,19.45
2019-04-23T18:30:35.219Z,19.36
2019-04-23T18:35:40.461Z,19.12
2019-04-23T18:43:32.716Z,18.82
2019-04-23T18:51:03.716Z,18.77
2019-04-23T18:53:43.545Z,18.77
2019-04-23T18:58:48.543Z,18.64
2019-04-23T19:01:11.319Z,18.58
2019-04-23T19:04:07.174Z,18.56
2019-04-23T19:06:37.740Z,18.56
2019-04-23T19:17:33.610Z,18.26
2019-04-23T19:27:18.373Z,18.01
2019-04-23T19:29:52.021Z,17.94
2019-04-23T19:32:33.581Z,17.91
2019-04-23T19:37:18.361Z,17.79
2019-04-23T19:40:04.819Z,17.75
2019-04-23T19:42:18.024Z,17.70
2019-04-23T19:44:54.444Z,17.66
2019-04-23T19:47:38.538Z,17.59
2019-04-23T19:50:02.104Z,17.55
2019-04-23T19:52:52.134Z,17.47
2019-04-23T19:54:58.495Z,17.39
2019-04-23T19:57:42.735Z,17.29
2019-04-23T20:00:13.076Z,17.26
2019-04-23T20:02:58.201Z,17.22
2019-04-23T20:05:10.897Z,17.12
2019-04-23T20:07:54.865Z,16.99
2019-04-23T20:10:12.369Z,16.94
2019-04-23T20:13:01.524Z,16.91
2019-04-23T20:15:08.282Z,16.82
2019-04-23T20:17:51.603Z,16.80
2019-04-23T20:20:26.513Z,16.77
2019-04-23T20:22:56.771Z,16.75
2019-04-23T20:25:53.720Z,16.73
2019-04-23T20:36:05.588Z,16.62
2019-04-23T20:40:56.921Z,16.53
2019-04-23T20:43:27.237Z,16.49
2019-04-23T20:45:59.992Z,16.41
2019-04-23T20:48:32.509Z,16.38
2019-04-23T20:51:20.326Z,16.31
2019-04-23T20:53:38.274Z,16.32
2019-04-23T20:58:43.927Z,16.25
2019-04-23T21:01:22.268Z,16.11
2019-04-23T21:03:51.570Z,16.08
2019-04-23T21:09:10.035Z,16.06
2019-04-23T21:11:32.651Z,16.02
2019-04-23T21:14:03.318Z,15.95
2019-04-23T21:19:10.123Z,15.82
2019-04-23T21:21:26.241Z,15.81
2019-04-23T21:23:55.068Z,15.75
2019-04-23T21:26:35.782Z,15.68
2019-04-23T21:29:02.169Z,15.64
2019-04-23T21:31:48.606Z,15.61
2019-04-23T21:34:35.360Z,15.59
2019-04-23T21:36:45.705Z,15.54
2019-04-23T21:42:14.698Z,15.45
2019-04-23T21:44:28.884Z,15.41
2019-04-23T21:47:04.679Z,15.36
2019-04-23T21:52:05.021Z,15.27
2019-04-23T21:54:39.503Z,15.25
2019-04-23T21:57:19.534Z,15.21
2019-04-23T21:59:44.663Z,15.21
2019-04-23T22:02:14.981Z,15.20
2019-04-23T22:04:44.998Z,15.13
2019-04-23T22:07:15.775Z,15.08
2019-04-23T22:09:50.425Z,15.04
2019-04-23T22:17:27.216Z,14.82
2019-04-23T22:20:03.398Z,14.79
2019-04-23T22:22:32.035Z,14.75
2019-04-23T22:24:58.618Z,14.66
2019-04-23T22:27:26.092Z,14.62
2019-04-23T22:29:59.530Z,14.61
2019-04-23T22:32:40.451Z,14.60
2019-04-23T22:35:07.828Z,14.54
2019-04-23T22:37:42.431Z,14.59
2019-04-23T22:40:09.439Z,14.54
2019-04-23T22:43:07.348Z,14.55
2019-04-23T22:45:16.067Z,14.49
2019-04-23T22:47:47.978Z,14.41
2019-04-23T22:50:19.098Z,14.39
2019-04-23T22:52:53.857Z,14.38
2019-04-23T22:55:12.718Z,14.34
2019-04-23T23:00:30.039Z,14.23
2019-04-23T23:03:06.373Z,14.22
2019-04-23T23:05:50.657Z,14.22
2019-04-23T23:08:11.394Z,14.17
2019-04-23T23:10:46.457Z,14.16
2019-04-23T23:13:16.499Z,14.10
2019-04-23T23:15:51.333Z,14.06
2019-04-23T23:20:55.861Z,14.01
2019-04-23T23:23:21.047Z,14.00
2019-04-23T23:31:04.019Z,13.97
2019-04-23T23:33:23.366Z,13.93
2019-04-23T23:35:58.868Z,13.90
2019-04-23T23:38:33.493Z,13.89
2019-04-23T23:41:12.925Z,13.86
2019-04-23T23:43:30.216Z,13.82
2019-04-23T23:46:13.767Z,13.75
2019-04-23T23:48:34.993Z,13.73
2019-04-23T23:52:21.747Z,13.74
2019-04-23T23:54:52.648Z,13.77
2019-04-23T23:57:23.365Z,13.65
